Time;durP1;ratioP1;P1;durP2;ratioP2;P2;SDS_P1;SDS_P2;PMS_P1;PMS_P2;Temp;Humidity;BMP_temperature;BMP_pressure;BME280_temperature;BME280_humidity;BME280_pressure;Samples;Min_cycle;Max_cycle;Signal;HPM_P1;HPM_P2
2023/05/28 09:41:03;;;;;;;;;;;;;;;24.41;24.68;99670.10;106897;1312;544434;-45
2023/05/28 09:43:29;;;;;;;;;;;;;;;25.00;24.12;99665.98;107216;1314;22670;-44
2023/05/28 09:46:06;;;;;;;;;;;;;;;25.48;22.73;99663.14;107279;1314;22518;-44
2023/05/28 09:48:31;;;;;;;;;;;;;;;25.83;22.21;99654.13;107273;1313;22477;-44
2023/05/28 09:50:57;;;;;;;;;;;;;;;25.94;21.38;99655.22;107278;1313;22473;-49
2023/05/28 09:53:23;;;;;;;;;;;;;;;26.48;22.65;99652.78;107282;1313;22490;-46
2023/05/28 09:55:49;;;;;;;;;;;;;;;27.05;22.72;99648.29;107369;1311;150752;-41
2023/05/28 09:58:16;;;;;;;;;;;;;;;27.33;21.66;99646.92;107471;1311;22487;-45
2023/05/28 10:00:44;;;;;;;;;;;;;;;27.70;22.02;99650.61;107493;1311;23154;-45
2023/05/28 10:03:28;;;;;;;;;;;;;;;27.70;20.26;99648.36;107504;1311;22459;-44
2023/05/28 10:05:56;;;;;;;;;;;;;;;27.66;20.22;99644.35;107489;1311;22469;-45
2023/05/28 10:08:24;;;;;;;;;;;;;;;28.01;20.84;99648.09;107468;1311;22530;-45
2023/05/28 10:10:51;;;;;;;;;;;;;;;28.36;19.61;99648.93;107470;1311;22423;-47
2023/05/28 10:13:17;;;;;;;;;;;;;;;28.30;19.36;99645.95;107481;1311;22512;-41
2023/05/28 10:15:43;;;;;;;;;;;;;;;28.83;20.43;99645.87;107483;1311;23432;-43
2023/05/28 10:18:08;;;;;;;;;;;;;;;29.18;20.68;99640.98;107506;1311;22489;-45
2023/05/28 10:20:33;;;;;;;;;;;;;;;29.01;19.24;99640.23;107493;1311;22448;-44
2023/05/28 10:22:59;;;;;;;;;;;;;;;29.06;18.99;99637.90;107468;1311;22528;-44
2023/05/28 10:25:25;;;;;;;;;;;;;;;29.37;18.90;99640.25;107466;1311;23084;-42
2023/05/28 10:27:56;;;;;;;;;;;;;;;29.69;17.67;99645.00;107463;1311;23191;-42
2023/05/28 10:30:35;;;;;;;;;;;;;;;29.86;18.40;99639.10;107457;1311;22557;-44
2023/05/28 10:33:03;;;;;;;;;;;;;;;29.95;18.03;99634.98;107469;1311;22463;-43
2023/05/28 10:35:28;;;;;;;;;;;;;;;29.84;17.94;99638.66;107473;1311;22542;-47
2023/05/28 10:38:08;;;;;;;;;;;;;;;30.01;17.74;99640.16;107477;1311;22508;-43
2023/05/28 10:40:34;;;;;;;;;;;;;;;30.27;17.95;99638.40;107484;1311;22494;-45
2023/05/28 10:43:00;;;;;;;;;;;;;;;30.11;17.03;99634.40;107482;1311;22476;-44
2023/05/28 10:45:39;;;;;;;;;;;;;;;29.35;17.32;99625.46;107519;1304;23210;-43
2023/05/28 10:48:05;;;;;;;;;;;;;;;29.50;17.92;99626.09;107669;1310;22480;-43
2023/05/28 10:50:30;;;;;;;;;;;;;;;29.56;17.99;99625.66;107466;1311;22462;-45
2023/05/28 10:53:03;;;;;;;;;;;;;;;29.93;17.91;99626.14;107573;1310;23016;-46
2023/05/28 10:55:29;;;;;;;;;;;;;;;30.19;18.08;99624.99;107608;1310;22455;-45
2023/05/28 10:58:05;;;;;;;;;;;;;;;30.51;18.42;99627.13;107665;1310;22517;-40
2023/05/28 11:00:30;;;;;;;;;;;;;;;30.67;17.42;99624.55;107658;1310;22493;-44
2023/05/28 11:02:55;;;;;;;;;;;;;;;30.48;16.84;99621.52;107404;1310;22542;-42
2023/05/28 11:05:27;;;;;;;;;;;;;;;30.94;17.72;99615.21;106569;1310;22537;-47
2023/05/28 11:07:54;;;;;;;;;;;;;;;30.74;17.46;99611.33;107210;1310;23223;-46
2023/05/28 11:10:20;;;;;;;;;;;;;;;31.06;17.92;99615.15;107660;1298;22469;-47
2023/05/28 11:12:46;;;;;;;;;;;;;;;30.90;17.82;99615.73;107658;1310;22481;-45
2023/05/28 11:15:12;;;;;;;;;;;;;;;30.73;16.85;99619.76;107808;1308;22527;-44
2023/05/28 11:17:38;;;;;;;;;;;;;;;30.97;16.84;99620.44;107816;1308;22448;-45
2023/05/28 11:20:04;;;;;;;;;;;;;;;31.12;16.89;99616.88;107839;1308;23068;-42
2023/05/28 11:22:35;;;;;;;;;;;;;;;31.70;16.49;99614.45;107840;1308;22519;-42
2023/05/28 11:25:08;;;;;;;;;;;;;;;31.55;16.18;99609.45;107847;1308;22519;-41
2023/05/28 11:27:35;;;;;;;;;;;;;;;31.40;16.57;99611.86;107838;1308;22464;-43
2023/05/28 11:30:01;;;;;;;;;;;;;;;31.55;16.58;99612.08;107835;1308;22642;-41
2023/05/28 11:32:27;;;;;;;;;;;;;;;31.92;16.34;99618.98;107838;1308;23132;-43
2023/05/28 11:34:54;;;;;;;;;;;;;;;32.51;16.35;99618.22;107839;1308;22502;-46
2023/05/28 11:37:24;;;;;;;;;;;;;;;32.18;15.83;99615.05;107837;1308;22447;-48
2023/05/28 11:39:50;;;;;;;;;;;;;;;32.19;15.52;99608.19;107815;1308;22496;-43
2023/05/28 11:42:16;;;;;;;;;;;;;;;32.29;15.35;99605.66;107837;1308;22466;-43
2023/05/28 11:44:45;;;;;;;;;;;;;;;32.30;15.38;99604.48;107833;1308;22457;-45
2023/05/28 11:47:11;;;;;;;;;;;;;;;32.09;15.42;99608.31;107841;1308;23071;-44
2023/05/28 11:49:36;;;;;;;;;;;;;;;31.77;15.52;99605.56;107827;1308;22457;-42
2023/05/28 11:52:02;;;;;;;;;;;;;;;31.35;15.71;99597.23;107840;1308;22530;-44
2023/05/28 11:54:27;;;;;;;;;;;;;;;31.36;15.91;99599.73;107842;1308;22571;-43
2023/05/28 11:56:52;;;;;;;;;;;;;;;31.14;15.76;99592.69;107879;1308;22473;-45
2023/05/28 11:59:18;;;;;;;;;;;;;;;31.08;15.62;99591.52;107827;1308;22449;-43
2023/05/28 12:01:44;;;;;;;;;;;;;;;31.01;16.49;99591.16;107846;1308;22441;-44
2023/05/28 12:04:09;;;;;;;;;;;;;;;31.30;16.25;99590.18;107845;1308;22448;-40
2023/05/28 12:06:48;;;;;;;;;;;;;;;31.16;15.98;99588.83;107827;1308;23274;-47
2023/05/28 12:09:14;;;;;;;;;;;;;;;31.13;15.96;99584.11;107851;1308;22468;-44
2023/05/28 12:11:39;;;;;;;;;;;;;;;31.04;16.34;99582.17;107872;1308;23180;-44
2023/05/28 12:14:08;;;;;;;;;;;;;;;30.85;16.34;99577.32;107846;1308;22939;-43
2023/05/28 12:16:41;;;;;;;;;;;;;;;30.53;16.52;99577.38;107829;1308;22540;-45
2023/05/28 12:19:13;;;;;;;;;;;;;;;30.31;17.46;99574.56;107848;1298;22432;-46
2023/05/28 12:21:38;;;;;;;;;;;;;;;30.11;17.35;99572.84;107829;1308;22490;-43
2023/05/28 12:24:13;;;;;;;;;;;;;;;29.75;18.16;99568.44;107835;1308;22548;-46
2023/05/28 12:26:39;;;;;;;;;;;;;;;29.84;18.29;99567.27;107835;1308;23156;-43
2023/05/28 12:29:04;;;;;;;;;;;;;;;29.74;18.26;99566.42;107843;1308;23128;-45
2023/05/28 12:31:29;;;;;;;;;;;;;;;29.24;18.22;99563.51;107844;1308;22450;-46
2023/05/28 12:33:54;;;;;;;;;;;;;;;29.12;19.36;99559.83;107831;1308;22610;-47
2023/05/28 12:36:20;;;;;;;;;;;;;;;28.77;19.30;99554.25;107829;1308;23728;-41
2023/05/28 12:38:45;;;;;;;;;;;;;;;28.79;19.01;99552.28;107842;1308;22564;-46
2023/05/28 12:41:10;;;;;;;;;;;;;;;28.48;19.21;99558.70;107845;1308;22594;-40
2023/05/28 12:43:35;;;;;;;;;;;;;;;28.11;19.79;99556.52;107823;1308;22457;-44
2023/05/28 12:46:00;;;;;;;;;;;;;;;28.12;19.69;99550.33;107875;1308;22732;-44
2023/05/28 12:48:26;;;;;;;;;;;;;;;27.94;19.97;99542.94;107826;1308;22583;-45
2023/05/28 12:50:51;;;;;;;;;;;;;;;27.56;20.05;99545.18;107828;1308;23405;-42
2023/05/28 12:53:16;;;;;;;;;;;;;;;27.27;20.72;99544.02;107818;1308;23145;-41
2023/05/28 12:55:41;;;;;;;;;;;;;;;27.26;21.09;99539.63;107874;1308;23484;-41
2023/05/28 12:58:07;;;;;;;;;;;;;;;27.14;20.62;99536.57;107837;1308;22479;-46
2023/05/28 13:00:32;;;;;;;;;;;;;;;26.96;20.77;99533.17;107843;1308;22464;-41
2023/05/28 13:02:57;;;;;;;;;;;;;;;26.76;20.80;99524.95;107837;1308;22463;-41
2023/05/28 13:05:22;;;;;;;;;;;;;;;26.51;21.02;99526.56;107846;1308;22474;-43
2023/05/28 13:07:48;;;;;;;;;;;;;;;26.49;21.54;99520.21;107865;1308;22456;-44
2023/05/28 13:10:13;;;;;;;;;;;;;;;26.44;21.87;99524.71;107852;1308;22446;-44
2023/05/28 13:12:38;;;;;;;;;;;;;;;26.49;21.60;99517.98;107823;1308;24514;-43
2023/05/28 13:15:07;;;;;;;;;;;;;;;26.50;21.85;99521.02;107664;1309;22570;-43
2023/05/28 13:17:32;;;;;;;;;;;;;;;26.53;21.99;99518.39;107674;1309;22465;-45
2023/05/28 13:19:58;;;;;;;;;;;;;;;26.45;21.65;99515.05;107670;1309;23307;-47
2023/05/28 13:22:23;;;;;;;;;;;;;;;26.53;21.86;99511.61;107660;1309;22474;-44
2023/05/28 13:24:48;;;;;;;;;;;;;;;26.59;21.35;99506.45;107650;1309;22484;-42
2023/05/28 13:27:14;;;;;;;;;;;;;;;26.35;21.08;99505.30;107651;1309;23327;-44
2023/05/28 13:29:40;;;;;;;;;;;;;;;26.27;21.50;99505.70;107660;1309;22463;-44
2023/05/28 13:32:05;;;;;;;;;;;;;;;26.15;21.63;99504.27;107669;1309;22489;-42
2023/05/28 13:34:30;;;;;;;;;;;;;;;26.24;22.28;99501.64;107656;1309;22486;-45
2023/05/28 13:36:55;;;;;;;;;;;;;;;26.24;21.86;99497.38;107652;1309;22543;-45
2023/05/28 13:39:21;;;;;;;;;;;;;;;26.21;22.32;99496.73;107633;1309;22465;-46
2023/05/28 13:41:47;;;;;;;;;;;;;;;26.04;22.34;99495.28;107652;1309;23126;-46
2023/05/28 13:44:13;;;;;;;;;;;;;;;26.07;21.76;99492.36;107654;1309;23354;-44
2023/05/28 13:46:38;;;;;;;;;;;;;;;25.89;21.83;99487.71;107672;1309;22480;-44
2023/05/28 13:49:03;;;;;;;;;;;;;;;25.65;21.45;99490.48;107640;1309;22568;-44
2023/05/28 13:51:29;;;;;;;;;;;;;;;25.53;21.93;99488.04;107641;1309;22444;-45
2023/05/28 13:53:54;;;;;;;;;;;;;;;25.05;22.35;99486.84;107661;1309;23234;-44
2023/05/28 13:56:19;;;;;;;;;;;;;;;24.94;22.36;99482.51;107659;1309;22520;-45
2023/05/28 13:58:45;;;;;;;;;;;;;;;24.92;22.51;99481.26;107667;1309;22488;-44
2023/05/28 14:01:10;;;;;;;;;;;;;;;25.00;22.50;99476.33;107673;1309;25307;-46
2023/05/28 14:03:35;;;;;;;;;;;;;;;25.07;22.94;99476.08;107667;1309;22506;-41
2023/05/28 14:06:01;;;;;;;;;;;;;;;25.09;23.02;99477.73;107666;1309;22484;-43
2023/05/28 14:08:26;;;;;;;;;;;;;;;25.08;22.79;99475.02;107657;1309;23258;-44
2023/05/28 14:10:51;;;;;;;;;;;;;;;25.09;23.26;99476.67;107666;1309;22461;-44
2023/05/28 14:13:16;;;;;;;;;;;;;;;25.14;23.06;99474.45;107655;1309;24460;-45
2023/05/28 14:15:42;;;;;;;;;;;;;;;25.19;22.76;99468.73;107691;1309;23956;-45
2023/05/28 14:18:07;;;;;;;;;;;;;;;25.04;22.86;99463.10;107677;1309;22553;-45
2023/05/28 14:20:35;;;;;;;;;;;;;;;24.93;22.94;99458.80;107666;1309;22481;-44
2023/05/28 14:23:02;;;;;;;;;;;;;;;24.89;23.06;99456.20;107671;1309;23219;-42
2023/05/28 14:25:27;;;;;;;;;;;;;;;24.84;23.25;99451.51;107640;1309;22449;-45
2023/05/28 14:27:52;;;;;;;;;;;;;;;24.89;23.64;99452.89;107669;1309;22602;-42
2023/05/28 14:30:17;;;;;;;;;;;;;;;24.97;23.22;99452.06;107658;1309;22459;-45
2023/05/28 14:32:45;;;;;;;;;;;;;;;24.92;23.49;99449.75;107655;1309;23518;-46
2023/05/28 14:35:10;;;;;;;;;;;;;;;24.89;23.45;99447.52;107658;1309;22535;-45
2023/05/28 14:37:35;;;;;;;;;;;;;;;24.90;23.51;99445.16;107646;1309;22580;-46
2023/05/28 14:40:01;;;;;;;;;;;;;;;24.78;23.31;99441.97;107668;1309;22493;-42
2023/05/28 14:42:26;;;;;;;;;;;;;;;24.61;23.57;99434.19;107661;1303;23237;-43
2023/05/28 14:44:51;;;;;;;;;;;;;;;24.61;23.95;99433.98;107667;1309;22500;-45
2023/05/28 14:47:16;;;;;;;;;;;;;;;24.56;23.81;99435.65;107669;1309;22456;-42
2023/05/28 14:49:42;;;;;;;;;;;;;;;24.53;24.01;99436.48;107651;1309;23012;-43
2023/05/28 14:52:20;;;;;;;;;;;;;;;24.55;24.04;99434.70;107670;1309;22477;-47
2023/05/28 14:54:46;;;;;;;;;;;;;;;24.51;24.46;99437.77;107666;1309;23156;-51
2023/05/28 14:57:11;;;;;;;;;;;;;;;24.38;23.61;99433.38;107657;1309;22516;-44
2023/05/28 14:59:36;;;;;;;;;;;;;;;24.05;23.74;99433.27;107672;1309;22560;-46
2023/05/28 15:02:01;;;;;;;;;;;;;;;23.91;24.15;99435.82;107694;1309;22493;-46
2023/05/28 15:04:26;;;;;;;;;;;;;;;23.98;24.13;99432.36;107657;1309;22481;-45
2023/05/28 15:06:52;;;;;;;;;;;;;;;24.02;24.04;99430.52;107660;1309;23282;-40
2023/05/28 15:09:17;;;;;;;;;;;;;;;24.08;23.74;99428.54;107674;1309;22523;-46
2023/05/28 15:11:42;;;;;;;;;;;;;;;24.06;23.65;99422.66;107666;1309;22463;-44
2023/05/28 15:14:08;;;;;;;;;;;;;;;23.90;23.78;99421.94;107666;1309;22511;-43
2023/05/28 15:16:33;;;;;;;;;;;;;;;23.82;23.72;99417.31;107688;1309;23151;-45
2023/05/28 15:18:58;;;;;;;;;;;;;;;23.65;23.88;99416.59;107638;1309;22514;-45
2023/05/28 15:21:23;;;;;;;;;;;;;;;23.60;23.87;99416.73;107642;1309;23248;-45
2023/05/28 15:23:48;;;;;;;;;;;;;;;23.36;23.96;99418.57;107702;1309;22444;-42
2023/05/28 15:26:14;;;;;;;;;;;;;;;23.42;24.01;99419.41;107679;1309;23318;-42
2023/05/28 15:28:39;;;;;;;;;;;;;;;23.26;24.35;99417.13;107646;1309;22594;-43
2023/05/28 15:31:04;;;;;;;;;;;;;;;23.28;24.33;99414.39;107630;1309;25256;-43
2023/05/28 15:33:30;;;;;;;;;;;;;;;23.24;24.94;99420.77;107654;1309;22466;-43
2023/05/28 15:35:55;;;;;;;;;;;;;;;23.30;24.86;99419.79;107672;1309;22465;-44
2023/05/28 15:38:21;;;;;;;;;;;;;;;23.35;24.75;99416.88;107680;1309;22470;-44
2023/05/28 15:40:47;;;;;;;;;;;;;;;23.27;24.78;99419.88;107659;1309;23269;-44
2023/05/28 15:43:12;;;;;;;;;;;;;;;23.23;24.94;99421.58;107641;1309;22500;-46
2023/05/28 15:45:37;;;;;;;;;;;;;;;23.21;24.88;99422.92;107406;1309;22897;-41
2023/05/28 15:48:02;;;;;;;;;;;;;;;23.18;25.07;99416.38;106953;1308;22509;-46
2023/05/28 15:50:28;;;;;;;;;;;;;;;23.22;25.27;99418.11;107848;1308;23225;-42
2023/05/28 15:52:53;;;;;;;;;;;;;;;23.28;25.06;99419.48;107831;1308;22471;-44
2023/05/28 15:55:18;;;;;;;;;;;;;;;23.32;25.40;99417.57;107863;1307;22476;-41
2023/05/28 15:57:44;;;;;;;;;;;;;;;23.32;25.31;99409.86;107822;1307;22984;-44
2023/05/28 16:00:09;;;;;;;;;;;;;;;23.33;25.33;99409.96;107828;1306;22497;-46
2023/05/28 16:02:41;;;;;;;;;;;;;;;23.36;25.04;99409.56;107837;1306;22452;-46
2023/05/28 16:05:07;;;;;;;;;;;;;;;23.30;25.04;99404.02;107850;1307;22445;-47
2023/05/28 16:07:32;;;;;;;;;;;;;;;23.19;25.20;99404.70;107858;1308;22447;-47
2023/05/28 16:09:57;;;;;;;;;;;;;;;23.23;25.40;99407.64;107822;1308;22500;-45
2023/05/28 16:12:23;;;;;;;;;;;;;;;23.23;25.51;99402.76;107848;1308;22448;-45
2023/05/28 16:14:50;;;;;;;;;;;;;;;23.19;25.71;99402.71;107860;1308;22479;-47
2023/05/28 16:17:16;;;;;;;;;;;;;;;23.11;25.52;99410.35;107867;1308;22441;-48
2023/05/28 16:19:41;;;;;;;;;;;;;;;23.08;25.39;99407.64;107855;1308;22467;-45
2023/05/28 16:22:07;;;;;;;;;;;;;;;23.08;25.34;99405.70;107840;1307;22575;-47
2023/05/28 16:24:32;;;;;;;;;;;;;;;23.05;24.98;99409.55;107843;1308;22468;-44
2023/05/28 16:26:58;;;;;;;;;;;;;;;23.02;24.90;99411.09;107846;1308;22436;-43
2023/05/28 16:29:24;;;;;;;;;;;;;;;22.95;25.19;99408.00;107851;1308;22438;-43
2023/05/28 16:31:50;;;;;;;;;;;;;;;22.84;25.41;99406.85;107891;1307;22509;-49
2023/05/28 16:34:15;;;;;;;;;;;;;;;22.81;25.42;99404.48;107855;1308;22441;-47
2023/05/28 16:36:41;;;;;;;;;;;;;;;22.75;25.83;99402.05;107869;1307;22465;-44
2023/05/28 16:39:06;;;;;;;;;;;;;;;22.72;26.28;99408.14;107834;1308;23105;-44
2023/05/28 16:41:31;;;;;;;;;;;;;;;22.73;26.70;99406.95;107848;1308;22529;-44
2023/05/28 16:43:57;;;;;;;;;;;;;;;22.74;26.33;99408.65;107836;1308;22482;-42
2023/05/28 16:46:23;;;;;;;;;;;;;;;22.70;26.30;99408.77;107846;1308;23277;-44
2023/05/28 16:48:48;;;;;;;;;;;;;;;22.64;26.16;99409.68;107840;1308;22456;-46
2023/05/28 16:51:13;;;;;;;;;;;;;;;22.61;26.33;99407.48;107858;1308;22504;-43
2023/05/28 16:53:40;;;;;;;;;;;;;;;22.54;26.26;99408.39;107841;1308;22886;-44
2023/05/28 16:56:05;;;;;;;;;;;;;;;22.42;26.61;99405.40;107837;1308;22477;-46
2023/05/28 16:58:31;;;;;;;;;;;;;;;22.33;26.68;99405.77;107833;1308;22511;-46
2023/05/28 17:00:57;;;;;;;;;;;;;;;22.24;26.51;99407.65;107846;1308;22462;-45
2023/05/28 17:03:23;;;;;;;;;;;;;;;22.16;26.69;99406.86;107849;1308;22423;-45
2023/05/28 17:05:49;;;;;;;;;;;;;;;22.12;26.47;99409.65;107844;1308;22471;-44
2023/05/28 17:08:15;;;;;;;;;;;;;;;21.97;26.85;99410.08;107855;1308;22424;-51
2023/05/28 17:10:40;;;;;;;;;;;;;;;21.89;27.17;99406.40;107880;1308;22467;-46
2023/05/28 17:13:05;;;;;;;;;;;;;;;21.89;27.56;99402.98;107833;1308;22583;-50
2023/05/28 17:15:31;;;;;;;;;;;;;;;21.86;27.82;99400.98;107731;1308;22479;-45
2023/05/28 17:17:56;;;;;;;;;;;;;;;21.80;27.84;99400.11;107738;1308;22568;-46
2023/05/28 17:20:21;;;;;;;;;;;;;;;21.73;27.91;99396.09;107740;1308;22430;-47
2023/05/28 17:22:46;;;;;;;;;;;;;;;21.67;28.29;99395.57;107744;1308;22456;-47
2023/05/28 17:25:12;;;;;;;;;;;;;;;21.66;28.46;99394.12;107729;1308;22432;-50
2023/05/28 17:27:37;;;;;;;;;;;;;;;21.63;28.56;99393.63;107734;1308;23115;-45
2023/05/28 17:30:02;;;;;;;;;;;;;;;21.60;28.48;99394.81;107729;1308;22470;-48
2023/05/28 17:32:28;;;;;;;;;;;;;;;21.55;28.35;99392.54;107724;1308;22450;-44
2023/05/28 17:34:53;;;;;;;;;;;;;;;21.42;28.46;99393.54;107737;1308;22418;-47
2023/05/28 17:37:19;;;;;;;;;;;;;;;21.35;28.69;99390.02;107737;1308;23267;-47
2023/05/28 17:39:44;;;;;;;;;;;;;;;21.27;28.85;99391.51;107738;1308;22523;-42
2023/05/28 17:42:09;;;;;;;;;;;;;;;21.20;29.43;99387.59;107766;1308;22441;-44
2023/05/28 17:44:35;;;;;;;;;;;;;;;21.15;29.18;99388.71;107734;1308;23218;-44
2023/05/28 17:47:00;;;;;;;;;;;;;;;21.09;29.17;99389.17;107737;1308;22466;-44
2023/05/28 17:49:25;;;;;;;;;;;;;;;21.02;28.95;99385.23;107725;1308;22516;-45
2023/05/28 17:51:52;;;;;;;;;;;;;;;20.98;28.94;99386.88;107746;1308;23213;-45
2023/05/28 17:54:18;;;;;;;;;;;;;;;20.93;29.18;99386.25;107735;1308;22437;-46
2023/05/28 17:56:43;;;;;;;;;;;;;;;20.87;29.13;99386.45;107752;1308;23274;-45
2023/05/28 17:59:08;;;;;;;;;;;;;;;20.74;29.76;99390.23;107715;1308;22468;-48
2023/05/28 18:01:33;;;;;;;;;;;;;;;20.65;30.23;99394.06;107745;1308;24433;-44
2023/05/28 18:04:01;;;;;;;;;;;;;;;20.60;30.15;99389.80;107750;1308;23106;-48
2023/05/28 18:06:26;;;;;;;;;;;;;;;20.53;30.23;99398.27;107761;1308;22434;-47
2023/05/28 18:08:52;;;;;;;;;;;;;;;20.46;30.23;99393.53;107744;1308;22486;-47
2023/05/28 18:11:19;;;;;;;;;;;;;;;20.40;30.35;99392.04;107756;1308;25141;-49
2023/05/28 18:13:45;;;;;;;;;;;;;;;20.31;30.60;99390.30;107764;1308;23117;-46
2023/05/28 18:16:10;;;;;;;;;;;;;;;20.26;30.39;99389.89;107723;1308;22421;-50
2023/05/28 18:18:36;;;;;;;;;;;;;;;20.20;30.53;99390.10;107747;1308;22863;-47
2023/05/28 18:21:01;;;;;;;;;;;;;;;20.13;30.52;99392.54;107767;1308;22431;-48
2023/05/28 18:23:27;;;;;;;;;;;;;;;20.08;31.16;99395.83;107734;1308;22427;-45
2023/05/28 18:25:53;;;;;;;;;;;;;;;20.01;31.36;99396.58;107782;1308;22441;-44
2023/05/28 18:28:21;;;;;;;;;;;;;;;19.91;31.57;99397.45;107722;1308;22456;-44
2023/05/28 18:30:46;;;;;;;;;;;;;;;19.83;31.88;99396.77;107775;1308;23226;-45
2023/05/28 18:33:12;;;;;;;;;;;;;;;19.76;31.59;99396.28;107729;1308;22418;-45
2023/05/28 18:35:37;;;;;;;;;;;;;;;19.71;31.24;99393.16;107764;1308;23286;-48
2023/05/28 18:38:02;;;;;;;;;;;;;;;19.62;31.94;99391.92;107732;1308;22469;-46
2023/05/28 18:40:27;;;;;;;;;;;;;;;19.53;32.08;99391.59;107750;1308;22561;-48
2023/05/28 18:42:54;;;;;;;;;;;;;;;19.45;32.14;99395.55;107726;1308;22459;-46
2023/05/28 18:45:20;;;;;;;;;;;;;;;19.42;32.13;99401.38;107756;1308;23062;-47
2023/05/28 18:47:45;;;;;;;;;;;;;;;19.32;32.64;99403.98;107752;1308;22459;-45
2023/05/28 18:50:10;;;;;;;;;;;;;;;19.25;32.08;99404.86;107761;1308;22424;-46
2023/05/28 18:52:36;;;;;;;;;;;;;;;19.19;32.59;99402.35;107742;1308;23907;-47
2023/05/28 18:55:01;;;;;;;;;;;;;;;19.16;32.51;99401.20;107751;1308;22431;-48
2023/05/28 18:57:29;;;;;;;;;;;;;;;19.09;32.51;99404.08;107763;1308;22531;-47
2023/05/28 18:59:55;;;;;;;;;;;;;;;19.04;32.70;99405.66;107739;1308;22639;-49
2023/05/28 19:02:20;;;;;;;;;;;;;;;18.95;32.86;99405.36;107736;1308;22444;-43
2023/05/28 19:04:46;;;;;;;;;;;;;;;18.86;33.40;99411.27;107745;1308;22447;-43
2023/05/28 19:07:11;;;;;;;;;;;;;;;18.81;33.47;99416.31;107746;1308;22447;-44
2023/05/28 19:09:36;;;;;;;;;;;;;;;18.77;33.26;99409.94;107747;1308;22452;-45
2023/05/28 19:12:01;;;;;;;;;;;;;;;18.71;33.79;99410.22;107757;1308;22459;-44
2023/05/28 19:14:27;;;;;;;;;;;;;;;18.68;33.92;99412.15;107749;1308;23194;-47
2023/05/28 19:16:52;;;;;;;;;;;;;;;18.63;34.00;99415.91;107727;1308;23794;-45
2023/05/28 19:19:17;;;;;;;;;;;;;;;18.59;34.24;99414.33;107740;1308;23106;-44
2023/05/28 19:21:43;;;;;;;;;;;;;;;18.52;34.77;99418.27;107751;1308;22442;-48
2023/05/28 19:24:08;;;;;;;;;;;;;;;18.46;34.62;99420.23;107756;1308;22409;-47
2023/05/28 19:26:34;;;;;;;;;;;;;;;18.40;34.22;99421.29;107786;1308;22480;-49
2023/05/28 19:28:59;;;;;;;;;;;;;;;18.37;34.42;99423.80;107742;1308;22423;-47
2023/05/28 19:31:26;;;;;;;;;;;;;;;18.32;34.75;99420.19;107750;1308;23649;-47
2023/05/28 19:33:51;;;;;;;;;;;;;;;18.28;34.92;99419.66;107774;1308;22499;-46
2023/05/28 19:36:17;;;;;;;;;;;;;;;18.26;35.21;99418.23;107753;1308;22526;-49
2023/05/28 19:38:43;;;;;;;;;;;;;;;18.22;35.38;99420.46;107765;1308;22466;-43
2023/05/28 19:41:08;;;;;;;;;;;;;;;18.19;35.71;99420.02;107762;1308;22493;-47
2023/05/28 19:43:33;;;;;;;;;;;;;;;18.18;35.56;99419.42;107462;1308;22467;-47
2023/05/28 19:45:59;;;;;;;;;;;;;;;18.15;35.98;99422.52;107750;1308;23189;-48
2023/05/28 19:48:26;;;;;;;;;;;;;;;18.11;36.23;99421.95;107752;1308;23163;-47
2023/05/28 19:50:51;;;;;;;;;;;;;;;18.09;36.24;99423.42;107784;1308;22433;-45
2023/05/28 19:53:16;;;;;;;;;;;;;;;18.04;36.93;99423.98;107760;1308;22443;-45
2023/05/28 19:55:41;;;;;;;;;;;;;;;17.99;36.86;99426.13;107743;1308;24562;-44
2023/05/28 19:58:10;;;;;;;;;;;;;;;17.97;36.45;99426.11;107772;1308;23237;-46
2023/05/28 20:00:38;;;;;;;;;;;;;;;17.90;36.92;99428.55;107729;1308;22455;-50
2023/05/28 20:03:03;;;;;;;;;;;;;;;17.85;37.36;99426.11;107776;1308;22430;-47
2023/05/28 20:05:28;;;;;;;;;;;;;;;17.77;37.75;99426.70;107757;1308;22537;-48
2023/05/28 20:07:53;;;;;;;;;;;;;;;17.74;37.54;99429.86;107767;1308;22450;-44
2023/05/28 20:10:19;;;;;;;;;;;;;;;17.72;37.59;99436.36;107753;1308;23281;-49
2023/05/28 20:12:44;;;;;;;;;;;;;;;17.70;37.48;99438.33;107768;1308;22488;-45
2023/05/28 20:15:09;;;;;;;;;;;;;;;17.68;37.81;99439.77;107769;1308;22412;-47
2023/05/28 20:17:35;;;;;;;;;;;;;;;17.64;37.55;99437.73;107754;1308;22441;-44
2023/05/28 20:20:01;;;;;;;;;;;;;;;17.60;38.18;99442.30;107763;1308;22856;-49
2023/05/28 20:22:26;;;;;;;;;;;;;;;17.57;38.34;99445.05;107778;1308;23244;-46
2023/05/28 20:24:52;;;;;;;;;;;;;;;17.54;38.41;99445.61;107774;1308;22475;-47
2023/05/28 20:27:17;;;;;;;;;;;;;;;17.50;38.60;99446.66;107783;1308;22475;-49
2023/05/28 20:29:43;;;;;;;;;;;;;;;17.46;38.23;99445.72;107788;1308;22465;-47
2023/05/28 20:32:08;;;;;;;;;;;;;;;17.43;38.51;99443.37;107737;1308;22438;-44
2023/05/28 20:34:34;;;;;;;;;;;;;;;17.39;39.09;99440.98;107792;1308;22426;-47
2023/05/28 20:37:00;;;;;;;;;;;;;;;17.38;38.75;99437.52;107750;1308;22465;-46
2023/05/28 20:39:27;;;;;;;;;;;;;;;17.35;38.81;99434.20;107774;1308;23174;-44
2023/05/28 20:41:54;;;;;;;;;;;;;;;17.32;38.95;99434.29;107785;1308;23078;-42
2023/05/28 20:44:19;;;;;;;;;;;;;;;17.28;39.51;99436.56;107763;1308;22494;-46
2023/05/28 20:46:44;;;;;;;;;;;;;;;17.25;39.67;99435.58;107778;1308;22638;-45
2023/05/28 20:49:11;;;;;;;;;;;;;;;17.21;39.54;99431.98;107763;1308;22462;-45
2023/05/28 20:51:36;;;;;;;;;;;;;;;17.16;39.32;99429.89;107799;1308;22442;-45
2023/05/28 20:54:03;;;;;;;;;;;;;;;17.12;39.54;99432.01;107760;1308;22507;-48
2023/05/28 20:56:29;;;;;;;;;;;;;;;17.10;39.83;99433.63;107699;1308;22426;-51
2023/05/28 20:58:56;;;;;;;;;;;;;;;17.06;39.95;99437.30;107791;1308;22451;-47
2023/05/28 21:01:23;;;;;;;;;;;;;;;17.04;40.40;99440.80;107777;1308;22447;-47
2023/05/28 21:03:48;;;;;;;;;;;;;;;17.01;40.54;99443.54;107780;1308;22523;-45
2023/05/28 21:06:13;;;;;;;;;;;;;;;16.96;40.98;99447.80;107771;1308;22509;-48
2023/05/28 21:08:38;;;;;;;;;;;;;;;16.92;41.12;99448.49;107763;1308;22504;-43
2023/05/28 21:11:03;;;;;;;;;;;;;;;16.87;41.18;99443.88;107807;1308;22579;-50
2023/05/28 21:13:29;;;;;;;;;;;;;;;16.82;41.65;99446.93;107778;1308;22423;-44
2023/05/28 21:15:54;;;;;;;;;;;;;;;16.77;41.66;99449.44;107752;1308;22459;-50
2023/05/28 21:18:19;;;;;;;;;;;;;;;16.74;41.96;99449.16;107793;1308;22492;-47
2023/05/28 21:20:45;;;;;;;;;;;;;;;16.70;41.78;99451.55;107780;1308;22474;-46
2023/05/28 21:23:10;;;;;;;;;;;;;;;16.67;42.25;99451.12;107774;1308;23262;-48
2023/05/28 21:25:35;;;;;;;;;;;;;;;16.63;42.64;99451.21;107804;1308;22421;-54
2023/05/28 21:28:01;;;;;;;;;;;;;;;16.58;42.81;99452.18;107772;1308;22440;-47
2023/05/28 21:30:28;;;;;;;;;;;;;;;16.52;42.72;99451.38;107775;1308;22427;-46
2023/05/28 21:32:53;;;;;;;;;;;;;;;16.48;42.98;99449.89;107700;1308;22411;-49
2023/05/28 21:35:18;;;;;;;;;;;;;;;16.44;43.43;99447.40;107764;1308;23266;-48
2023/05/28 21:37:46;;;;;;;;;;;;;;;16.38;43.59;99447.88;107767;1308;22460;-50
2023/05/28 21:40:11;;;;;;;;;;;;;;;16.35;43.41;99447.89;107784;1308;22463;-48
2023/05/28 21:42:37;;;;;;;;;;;;;;;16.32;43.63;99445.30;107769;1308;23255;-46
2023/05/28 21:45:03;;;;;;;;;;;;;;;16.31;43.32;99443.98;107797;1308;22481;-47
2023/05/28 21:47:28;;;;;;;;;;;;;;;16.29;43.33;99440.08;107806;1308;22454;-51
2023/05/28 21:49:53;;;;;;;;;;;;;;;16.27;43.56;99441.11;107782;1308;22447;-47
2023/05/28 21:52:18;;;;;;;;;;;;;;;16.22;43.11;99438.12;107797;1308;22587;-50
2023/05/28 21:54:44;;;;;;;;;;;;;;;16.19;42.76;99440.48;107621;1308;181132;-47
2023/05/28 21:57:09;;;;;;;;;;;;;;;16.19;42.96;99439.80;107775;1308;22434;-49
2023/05/28 21:59:34;;;;;;;;;;;;;;;16.19;42.89;99435.67;107760;1308;22436;-45
2023/05/28 22:01:59;;;;;;;;;;;;;;;16.16;43.04;99439.66;107751;1308;22437;-42
2023/05/28 22:04:25;;;;;;;;;;;;;;;16.14;42.84;99436.77;107795;1308;22480;-47
2023/05/28 22:06:50;;;;;;;;;;;;;;;16.13;43.21;99437.94;107786;1308;22522;-45
2023/05/28 22:09:15;;;;;;;;;;;;;;;16.11;43.41;99439.65;107760;1308;23135;-45